createdAt,value
2022-08-10T00:00:21.756Z,1022.99
2022-08-10T00:01:21.838Z,1023.03
2022-08-10T00:02:21.759Z,1022.97
2022-08-10T00:03:21.766Z,1022.99
2022-08-10T00:04:22.445Z,1023.01
2022-08-10T00:05:21.800Z,1022.96
2022-08-10T00:06:21.762Z,1022.97
2022-08-10T00:07:21.766Z,1022.95
2022-08-10T00:08:23.818Z,1022.97
2022-08-10T00:09:21.773Z,1022.99
2022-08-10T00:10:21.779Z,1022.99
2022-08-10T00:11:21.786Z,1022.96
2022-08-10T00:12:21.776Z,1023.01
2022-08-10T00:13:21.779Z,1023.04
2022-08-10T00:14:21.790Z,1023.01
2022-08-10T00:15:52.845Z,1023.04
2022-08-10T00:16:21.791Z,1023.03
2022-08-10T00:17:21.793Z,1023.05
2022-08-10T00:18:34.301Z,1023.07
2022-08-10T00:19:21.833Z,1023.09
2022-08-10T00:20:21.797Z,1023.07
2022-08-10T00:21:21.792Z,1023.07
2022-08-10T00:22:21.800Z,1023.06
2022-08-10T00:23:21.811Z,1023.10
2022-08-10T00:24:21.801Z,1023.07
2022-08-10T00:25:21.803Z,1023.05
2022-08-10T00:26:22.070Z,1023.04
2022-08-10T00:27:58.782Z,1023.04
2022-08-10T00:28:21.828Z,1023.04
2022-08-10T00:29:21.820Z,1023.05
2022-08-10T00:30:21.812Z,1023.04
2022-08-10T00:31:21.812Z,1023.03
2022-08-10T00:32:21.878Z,1023.02
2022-08-10T00:33:21.842Z,1023.01
2022-08-10T00:34:21.828Z,1022.95
2022-08-10T00:35:21.826Z,1022.96
2022-08-10T00:36:21.827Z,1022.97
2022-08-10T00:37:21.832Z,1022.96
2022-08-10T00:38:21.843Z,1023.00
2022-08-10T00:39:21.903Z,1023.00
2022-08-10T00:40:37.228Z,1023.00
2022-08-10T00:41:21.861Z,1023.01
2022-08-10T00:42:21.841Z,1023.01
2022-08-10T00:43:23.880Z,1023.02
2022-08-10T00:44:21.842Z,1023.02
2022-08-10T00:45:21.883Z,1023.03
2022-08-10T00:46:21.852Z,1023.00
2022-08-10T00:47:36.788Z,1022.97
2022-08-10T00:48:21.846Z,1022.94
2022-08-10T00:49:21.854Z,1022.97
2022-08-10T00:50:21.859Z,1022.92
2022-08-10T00:51:21.859Z,1022.92
2022-08-10T00:52:21.864Z,1022.92
2022-08-10T00:53:21.871Z,1022.89
2022-08-10T00:54:24.561Z,1022.86
2022-08-10T00:55:21.857Z,1022.88
2022-08-10T00:57:14.916Z,1022.86
2022-08-10T00:57:21.873Z,1022.84
2022-08-10T00:58:21.873Z,1022.79
2022-08-10T00:59:21.865Z,1022.75
2022-08-10T01:00:21.872Z,1022.79
2022-08-10T01:02:09.257Z,1022.77
2022-08-10T01:02:21.904Z,1022.76
2022-08-10T01:04:39.727Z,1022.78
2022-08-10T01:04:57.185Z,1022.77
2022-08-10T01:05:21.881Z,1022.75
2022-08-10T01:06:21.879Z,1022.73
2022-08-10T01:07:21.882Z,1022.72
2022-08-10T01:08:21.890Z,1022.72
2022-08-10T01:09:21.896Z,1022.67
2022-08-10T01:10:21.886Z,1022.64
2022-08-10T01:12:37.133Z,1022.64
2022-08-10T01:12:38.621Z,1022.68
2022-08-10T01:13:21.898Z,1022.67
2022-08-10T01:14:21.920Z,1022.66
2022-08-10T01:15:21.902Z,1022.66
2022-08-10T01:16:21.901Z,1022.64
2022-08-10T01:17:21.903Z,1022.68
2022-08-10T01:18:21.914Z,1022.65
2022-08-10T01:19:21.906Z,1022.63
2022-08-10T01:20:30.368Z,1022.67
2022-08-10T01:21:21.909Z,1022.61
2022-08-10T01:22:21.912Z,1022.64
2022-08-10T01:23:21.914Z,1022.58
2022-08-10T01:24:24.971Z,1022.62
2022-08-10T01:25:21.911Z,1022.65
2022-08-10T01:26:31.091Z,1022.64
2022-08-10T01:27:27.163Z,1022.63
2022-08-10T01:28:21.922Z,1022.63
2022-08-10T01:29:21.918Z,1022.63
2022-08-10T01:30:21.923Z,1022.65
2022-08-10T01:31:21.929Z,1022.64
2022-08-10T01:32:21.925Z,1022.66
2022-08-10T01:33:29.912Z,1022.64
2022-08-10T01:34:21.934Z,1022.63
2022-08-10T01:35:21.934Z,1022.59
2022-08-10T01:36:31.846Z,1022.60
2022-08-10T01:37:21.939Z,1022.63
2022-08-10T01:38:21.936Z,1022.62
2022-08-10T01:39:22.074Z,1022.63
2022-08-10T01:40:21.943Z,1022.63
2022-08-10T01:41:21.950Z,1022.69
2022-08-10T01:42:21.944Z,1022.61
2022-08-10T01:43:21.944Z,1022.60
2022-08-10T01:44:21.954Z,1022.57
2022-08-10T01:45:21.983Z,1022.65
2022-08-10T01:46:21.959Z,1022.61
2022-08-10T01:47:22.721Z,1022.62
2022-08-10T01:48:21.985Z,1022.63
2022-08-10T01:49:21.959Z,1022.65
2022-08-10T01:50:21.958Z,1022.64
2022-08-10T01:51:21.976Z,1022.66
2022-08-10T01:52:21.958Z,1022.64
2022-08-10T01:53:21.967Z,1022.65
2022-08-10T01:54:21.964Z,1022.66
2022-08-10T01:55:21.963Z,1022.65
2022-08-10T01:56:21.967Z,1022.63
2022-08-10T01:57:21.997Z,1022.61
2022-08-10T01:58:21.975Z,1022.62
2022-08-10T01:59:22.010Z,1022.63
2022-08-10T02:00:21.989Z,1022.57
2022-08-10T02:01:22.017Z,1022.58
2022-08-10T02:02:21.982Z,1022.61
2022-08-10T02:03:21.981Z,1022.54
2022-08-10T02:04:21.994Z,1022.54
2022-08-10T02:05:21.991Z,1022.54
2022-08-10T02:06:21.991Z,1022.55
2022-08-10T02:07:21.986Z,1022.58
2022-08-10T02:08:21.991Z,1022.56
2022-08-10T02:09:21.997Z,1022.61
2022-08-10T02:10:22.004Z,1022.55
2022-08-10T02:11:22.000Z,1022.55
2022-08-10T02:12:21.996Z,1022.55
2022-08-10T02:13:21.998Z,1022.56
2022-08-10T02:14:22.000Z,1022.60
2022-08-10T02:15:22.001Z,1022.58
2022-08-10T02:16:21.997Z,1022.61
2022-08-10T02:17:59.529Z,1022.59
2022-08-10T02:18:22.012Z,1022.61
2022-08-10T02:19:22.009Z,1022.61
2022-08-10T02:20:21.999Z,1022.61
2022-08-10T02:21:22.024Z,1022.64
2022-08-10T02:22:37.400Z,1022.69
2022-08-10T02:23:22.013Z,1022.66
2022-08-10T02:24:22.017Z,1022.64
2022-08-10T02:25:41.574Z,1022.70
2022-08-10T02:26:22.013Z,1022.63
2022-08-10T02:27:22.022Z,1022.69
2022-08-10T02:28:29.812Z,1022.70
2022-08-10T02:29:22.018Z,1022.68
2022-08-10T02:30:22.024Z,1022.66
2022-08-10T02:31:23.234Z,1022.65
2022-08-10T02:32:36.414Z,1022.69
2022-08-10T02:33:22.023Z,1022.66
2022-08-10T02:34:22.030Z,1022.65
2022-08-10T02:35:22.890Z,1022.66
2022-08-10T02:36:22.030Z,1022.68
2022-08-10T02:37:22.031Z,1022.65
2022-08-10T02:38:22.035Z,1022.68
2022-08-10T02:39:22.074Z,1022.77
2022-08-10T02:45:01.160Z,1022.71
2022-08-10T02:45:14.710Z,1022.67
2022-08-10T02:45:21.692Z,1022.68
2022-08-10T02:45:22.576Z,1022.70
2022-08-10T02:45:22.801Z,1022.69
2022-08-10T02:45:29.764Z,1022.67
2022-08-10T02:46:22.077Z,1022.69
2022-08-10T02:47:22.043Z,1022.66
2022-08-10T02:48:22.041Z,1022.69
2022-08-10T02:49:22.046Z,1022.69
2022-08-10T02:50:22.048Z,1022.72
2022-08-10T02:52:07.854Z,1022.75
2022-08-10T02:52:22.044Z,1022.71
2022-08-10T02:53:56.108Z,1022.70
2022-08-10T02:54:22.055Z,1022.67
2022-08-10T02:55:26.961Z,1022.69
2022-08-10T02:56:22.062Z,1022.69
2022-08-10T02:57:22.069Z,1022.73
2022-08-10T02:58:22.067Z,1022.72
2022-08-10T02:59:22.073Z,1022.73
2022-08-10T03:00:22.075Z,1022.70
2022-08-10T03:01:22.110Z,1022.74
2022-08-10T03:02:22.069Z,1022.71
2022-08-10T03:03:23.092Z,1022.71
2022-08-10T03:04:55.707Z,1022.71
2022-08-10T03:05:22.068Z,1022.71
2022-08-10T03:06:22.069Z,1022.71
2022-08-10T03:07:42.875Z,1022.74
2022-08-10T03:08:22.070Z,1022.73
2022-08-10T03:09:22.072Z,1022.74
2022-08-10T03:10:22.069Z,1022.75
2022-08-10T03:12:35.151Z,1022.73
2022-08-10T03:12:38.317Z,1022.73
2022-08-10T03:13:22.093Z,1022.73
2022-08-10T03:14:22.091Z,1022.71
2022-08-10T03:15:22.090Z,1022.79
2022-08-10T03:16:22.105Z,1022.77
2022-08-10T03:17:22.120Z,1022.72
2022-08-10T03:18:22.082Z,1022.74
2022-08-10T03:20:33.546Z,1022.71
2022-08-10T03:20:37.616Z,1022.68
2022-08-10T03:21:22.094Z,1022.72
2022-08-10T03:22:22.084Z,1022.75
2022-08-10T03:23:22.098Z,1022.69
2022-08-10T03:24:30.491Z,1022.65
2022-08-10T03:25:22.093Z,1022.70
2022-08-10T03:26:22.113Z,1022.69
2022-08-10T03:27:22.089Z,1022.68
2022-08-10T03:28:22.093Z,1022.71
2022-08-10T03:29:22.096Z,1022.70
2022-08-10T03:30:28.522Z,1022.68
2022-08-10T03:31:22.117Z,1022.71
2022-08-10T03:32:22.095Z,1022.65
2022-08-10T03:33:22.122Z,1022.68
2022-08-10T03:34:32.881Z,1022.71
2022-08-10T03:35:22.135Z,1022.70
2022-08-10T03:36:40.155Z,1022.72
2022-08-10T03:37:22.113Z,1022.72
2022-08-10T03:38:22.118Z,1022.65
2022-08-10T03:39:22.138Z,1022.67
2022-08-10T03:40:22.117Z,1022.68
2022-08-10T03:41:22.113Z,1022.66
2022-08-10T03:42:22.115Z,1022.65
2022-08-10T03:43:22.120Z,1022.65
2022-08-10T03:44:22.121Z,1022.65
2022-08-10T03:45:22.114Z,1022.62
2022-08-10T03:46:22.115Z,1022.68
2022-08-10T03:47:22.114Z,1022.69
2022-08-10T03:48:22.131Z,1022.66
2022-08-10T03:49:22.126Z,1022.66
2022-08-10T03:50:28.895Z,1022.65
2022-08-10T03:51:22.124Z,1022.68
2022-08-10T03:52:22.124Z,1022.71
2022-08-10T03:54:02.217Z,1022.68
2022-08-10T03:54:22.126Z,1022.71
2022-08-10T03:56:26.881Z,1022.69
2022-08-10T03:56:29.320Z,1022.70
2022-08-10T03:57:22.126Z,1022.75
2022-08-10T03:58:22.134Z,1022.72
2022-08-10T03:59:22.136Z,1022.73
2022-08-10T04:00:22.138Z,1022.72
2022-08-10T04:01:22.166Z,1022.73
2022-08-10T04:02:44.273Z,1022.74
2022-08-10T04:03:22.164Z,1022.73
2022-08-10T04:04:24.695Z,1022.72
2022-08-10T04:05:22.132Z,1022.72
2022-08-10T04:06:22.135Z,1022.73
2022-08-10T04:07:22.146Z,1022.72
2022-08-10T04:08:22.139Z,1022.72
2022-08-10T04:09:22.152Z,1022.73
2022-08-10T04:10:22.136Z,1022.74
2022-08-10T04:11:22.142Z,1022.73
2022-08-10T04:12:22.143Z,1022.72
2022-08-10T04:13:22.146Z,1022.73
2022-08-10T04:14:49.040Z,1022.73
2022-08-10T04:15:22.217Z,1022.73
2022-08-10T04:16:22.147Z,1022.74
2022-08-10T04:18:02.902Z,1022.74
2022-08-10T04:18:22.150Z,1022.78
2022-08-10T04:19:22.150Z,1022.76
2022-08-10T04:20:22.157Z,1022.78
2022-08-10T04:21:22.155Z,1022.81
2022-08-10T04:22:22.161Z,1022.79
2022-08-10T04:23:22.158Z,1022.79
2022-08-10T04:24:24.799Z,1022.78
2022-08-10T04:25:22.167Z,1022.79
2022-08-10T04:26:22.161Z,1022.78
2022-08-10T04:27:22.157Z,1022.77
2022-08-10T04:28:22.159Z,1022.75
2022-08-10T04:29:22.160Z,1022.75
2022-08-10T04:30:22.179Z,1022.77
2022-08-10T04:31:22.172Z,1022.76
2022-08-10T04:32:22.171Z,1022.77
2022-08-10T04:33:22.190Z,1022.78
2022-08-10T04:34:22.184Z,1022.81
2022-08-10T04:35:22.178Z,1022.81
2022-08-10T04:36:22.193Z,1022.86
2022-08-10T04:37:22.182Z,1022.81
2022-08-10T04:38:22.170Z,1022.78
2022-08-10T04:39:22.219Z,1022.78
2022-08-10T04:40:28.815Z,1022.80
2022-08-10T04:41:22.184Z,1022.76
2022-08-10T04:42:22.184Z,1022.77
2022-08-10T04:43:22.183Z,1022.80
2022-08-10T04:44:22.188Z,1022.82
2022-08-10T04:45:22.185Z,1022.80
2022-08-10T04:46:56.102Z,1022.82
2022-08-10T04:47:51.196Z,1022.80
2022-08-10T04:48:42.243Z,1022.81
2022-08-10T04:49:53.944Z,1022.86
2022-08-10T04:50:22.188Z,1022.90
2022-08-10T04:51:22.190Z,1022.83
2022-08-10T04:52:22.205Z,1022.87
2022-08-10T04:53:22.199Z,1022.88
2022-08-10T04:54:22.200Z,1022.88
2022-08-10T04:55:22.209Z,1022.90
2022-08-10T04:56:31.570Z,1022.89
2022-08-10T04:57:22.211Z,1022.90
2022-08-10T04:58:22.201Z,1022.87
2022-08-10T04:59:22.202Z,1022.89
2022-08-10T05:00:22.194Z,1022.90
2022-08-10T05:01:24.934Z,1022.93
2022-08-10T05:02:31.437Z,1022.93
2022-08-10T05:03:22.200Z,1022.93
2022-08-10T05:04:33.765Z,1022.95
2022-08-10T05:05:22.291Z,1022.97
2022-08-10T05:06:22.208Z,1022.93
2022-08-10T05:07:22.234Z,1022.97
2022-08-10T05:08:22.211Z,1022.95
2022-08-10T05:09:22.217Z,1023.01
2022-08-10T05:10:22.218Z,1023.01
2022-08-10T05:11:23.848Z,1023.01
2022-08-10T05:12:22.225Z,1023.01
2022-08-10T05:13:22.222Z,1023.03
2022-08-10T05:14:22.220Z,1023.05
2022-08-10T05:15:22.223Z,1023.01
2022-08-10T05:16:30.666Z,1023.05
2022-08-10T05:17:22.226Z,1023.00
2022-08-10T05:18:22.242Z,1023.08
2022-08-10T05:20:04.457Z,1023.05
2022-08-10T05:20:22.256Z,1023.05
2022-08-10T05:22:03.694Z,1023.10
2022-08-10T05:22:22.227Z,1023.04
2022-08-10T05:23:22.229Z,1023.04
2022-08-10T05:24:22.232Z,1023.07
2022-08-10T05:25:22.236Z,1023.08
2022-08-10T05:26:22.241Z,1023.08
2022-08-10T05:27:22.240Z,1023.05
2022-08-10T05:28:23.625Z,1023.07
2022-08-10T05:29:22.238Z,1023.06
2022-08-10T05:30:22.275Z,1023.06
2022-08-10T05:31:22.613Z,1023.10
2022-08-10T05:32:22.257Z,1023.10
2022-08-10T05:33:22.457Z,1023.10
2022-08-10T05:34:22.272Z,1023.10
2022-08-10T05:35:22.302Z,1023.11
2022-08-10T05:36:22.250Z,1023.12
2022-08-10T05:38:08.938Z,1023.12
2022-08-10T05:38:22.273Z,1023.12
2022-08-10T05:39:30.223Z,1023.18
2022-08-10T05:40:22.264Z,1023.13
2022-08-10T05:41:22.255Z,1023.14
2022-08-10T05:42:22.256Z,1023.19
2022-08-10T05:43:22.257Z,1023.15
2022-08-10T05:44:22.263Z,1023.15
2022-08-10T05:45:22.262Z,1023.20
2022-08-10T05:46:22.263Z,1023.19
2022-08-10T05:47:22.277Z,1023.19
2022-08-10T05:48:55.411Z,1023.15
2022-08-10T05:49:22.298Z,1023.10
2022-08-10T05:50:22.281Z,1023.15
2022-08-10T05:51:22.293Z,1023.36
2022-08-10T05:52:22.283Z,1023.52
2022-08-10T05:53:59.718Z,1023.52
2022-08-10T05:54:22.301Z,1023.52
2022-08-10T05:55:22.439Z,1023.56
2022-08-10T05:56:22.297Z,1023.59
2022-08-10T05:57:22.302Z,1023.65
2022-08-10T05:58:22.352Z,1023.70
2022-08-10T06:00:10.978Z,1023.81
2022-08-10T06:00:36.997Z,1023.86
2022-08-10T06:01:22.375Z,1023.86
2022-08-10T06:02:33.987Z,1023.91
2022-08-10T06:03:24.127Z,1023.85
2022-08-10T06:04:22.366Z,1023.87
2022-08-10T06:05:22.397Z,1023.91
2022-08-10T06:06:24.905Z,1023.90
2022-08-10T06:07:22.390Z,1024.02
2022-08-10T06:08:22.389Z,1024.03
2022-08-10T06:09:22.400Z,1024.01
2022-08-10T06:10:31.957Z,1024.03
2022-08-10T06:12:27.136Z,1024.08
2022-08-10T06:12:28.643Z,1024.07
2022-08-10T06:13:26.988Z,1024.14
2022-08-10T06:14:22.458Z,1024.12
2022-08-10T06:15:51.515Z,1024.14
2022-08-10T06:16:22.492Z,1024.22
2022-08-10T06:17:22.509Z,1024.19
2022-08-10T06:18:22.513Z,1024.21
2022-08-10T06:19:22.517Z,1024.27
2022-08-10T06:20:22.628Z,1024.31
2022-08-10T06:21:22.547Z,1024.32
2022-08-10T06:22:22.559Z,1024.19
2022-08-10T06:23:22.582Z,1023.88
2022-08-10T06:24:22.590Z,1023.74
2022-08-10T06:26:08.215Z,1023.68
2022-08-10T06:26:22.616Z,1023.69
2022-08-10T06:27:34.508Z,1023.69
2022-08-10T06:28:22.646Z,1023.67
2022-08-10T06:29:22.679Z,1023.66
2022-08-10T06:30:22.667Z,1023.64
2022-08-10T06:31:22.707Z,1023.68
2022-08-10T06:32:22.704Z,1023.67
2022-08-10T06:33:22.754Z,1023.66
2022-08-10T06:34:22.730Z,1023.71
2022-08-10T06:35:22.755Z,1023.91
2022-08-10T06:36:22.756Z,1024.19
2022-08-10T06:37:22.768Z,1024.11
2022-08-10T06:38:22.810Z,1023.81
2022-08-10T06:39:33.457Z,1023.73
2022-08-10T06:40:22.858Z,1023.66
2022-08-10T06:41:22.842Z,1023.67
2022-08-10T06:42:22.861Z,1023.65
2022-08-10T06:43:22.862Z,1023.67
2022-08-10T06:44:22.875Z,1023.69
2022-08-10T06:45:22.953Z,1023.70
2022-08-10T06:46:22.914Z,1023.63
2022-08-10T06:47:23.335Z,1023.63
2022-08-10T06:48:22.969Z,1023.65
2022-08-10T06:49:22.960Z,1023.60
2022-08-10T06:50:44.684Z,1023.61
2022-08-10T06:51:22.995Z,1023.58
2022-08-10T06:52:23.006Z,1023.59
2022-08-10T06:53:23.019Z,1023.59
2022-08-10T06:54:23.038Z,1023.56
2022-08-10T06:55:23.060Z,1023.55
2022-08-10T06:56:37.445Z,1023.55
2022-08-10T06:57:23.082Z,1023.50
2022-08-10T06:58:23.643Z,1023.52
2022-08-10T06:59:23.128Z,1023.53
2022-08-10T07:00:23.212Z,1023.52
2022-08-10T07:01:23.221Z,1023.53
2022-08-10T07:02:23.182Z,1023.48
2022-08-10T07:03:23.184Z,1023.51
2022-08-10T07:04:32.404Z,1023.47
2022-08-10T07:05:23.219Z,1023.52
2022-08-10T07:06:23.239Z,1023.48
2022-08-10T07:07:23.265Z,1023.56
2022-08-10T07:08:23.275Z,1023.58
2022-08-10T07:09:23.277Z,1023.53
2022-08-10T07:10:23.393Z,1023.53
2022-08-10T07:11:23.357Z,1023.59
2022-08-10T07:12:23.331Z,1023.57
2022-08-10T07:14:14.579Z,1023.63
2022-08-10T07:14:23.379Z,1023.57
2022-08-10T07:15:23.463Z,1023.58
2022-08-10T07:16:23.406Z,1023.57
2022-08-10T07:17:23.419Z,1023.53
2022-08-10T07:18:23.457Z,1023.54
2022-08-10T07:19:23.458Z,1023.54
2022-08-10T07:20:23.468Z,1023.54
2022-08-10T07:21:23.484Z,1023.54
2022-08-10T07:23:27.002Z,1023.51
2022-08-10T07:23:57.054Z,1023.55
2022-08-10T07:24:23.536Z,1023.55
2022-08-10T07:25:23.550Z,1023.59
2022-08-10T07:26:23.580Z,1023.57
2022-08-10T07:27:23.598Z,1023.60
2022-08-10T07:28:23.614Z,1023.58
2022-08-10T07:29:26.470Z,1023.56
2022-08-10T07:30:23.642Z,1023.56
2022-08-10T07:31:54.438Z,1023.53
2022-08-10T07:32:23.695Z,1023.55
2022-08-10T07:33:23.700Z,1023.50
2022-08-10T07:34:29.227Z,1023.47
2022-08-10T07:35:23.730Z,1023.51
2022-08-10T07:36:23.769Z,1023.55
2022-08-10T07:37:23.776Z,1023.50
2022-08-10T07:38:23.811Z,1023.47
2022-08-10T07:39:58.102Z,1023.52
2022-08-10T07:40:23.862Z,1023.52
2022-08-10T07:41:23.845Z,1023.51
2022-08-10T07:42:23.863Z,1023.51
2022-08-10T07:43:23.877Z,1023.43
2022-08-10T07:44:23.903Z,1023.45
2022-08-10T07:45:23.923Z,1023.50
2022-08-10T07:46:23.930Z,1023.54
2022-08-10T07:47:46.356Z,1023.51
2022-08-10T07:48:23.960Z,1023.53
2022-08-10T07:49:23.993Z,1023.49
2022-08-10T07:50:24.051Z,1023.54
2022-08-10T07:51:24.051Z,1023.51
2022-08-10T07:52:24.063Z,1023.53
2022-08-10T07:53:24.076Z,1023.52
2022-08-10T07:54:24.090Z,1023.55
2022-08-10T07:56:02.267Z,1023.60
2022-08-10T07:56:45.829Z,1023.58
2022-08-10T07:57:31.171Z,1023.56
2022-08-10T07:58:24.145Z,1023.58
2022-08-10T07:59:31.350Z,1023.55
2022-08-10T08:01:28.358Z,1023.61
2022-08-10T08:02:28.237Z,1023.57
2022-08-10T08:04:32.297Z,1023.59
2022-08-10T08:05:58.173Z,1023.54
2022-08-10T08:07:25.465Z,1023.52
2022-08-10T08:08:25.478Z,1023.51
2022-08-10T08:10:18.506Z,1023.47
2022-08-10T08:11:26.262Z,1023.50
2022-08-10T08:13:23.100Z,1023.46
2022-08-10T08:14:22.739Z,1023.49
2022-08-10T08:16:26.751Z,1023.48
2022-08-10T08:17:35.678Z,1023.46
2022-08-10T08:19:28.449Z,1023.49
2022-08-10T08:20:19.927Z,1023.44
2022-08-10T08:24:07.657Z,1023.47
2022-08-10T08:24:15.985Z,1023.40
2022-08-10T08:24:32.394Z,1023.39
2022-08-10T08:25:24.530Z,1023.39
2022-08-10T08:26:24.577Z,1023.41
2022-08-10T08:27:24.614Z,1023.41
2022-08-10T08:28:24.577Z,1023.41
2022-08-10T08:29:24.588Z,1023.41
2022-08-10T08:30:27.965Z,1023.40
2022-08-10T08:31:24.619Z,1023.35
2022-08-10T08:32:24.712Z,1023.41
2022-08-10T08:33:41.688Z,1023.37
2022-08-10T08:34:24.660Z,1023.36
2022-08-10T08:35:24.689Z,1023.35
2022-08-10T08:36:24.684Z,1023.29
2022-08-10T08:38:32.442Z,1023.31
2022-08-10T08:38:32.977Z,1023.28
2022-08-10T08:39:24.769Z,1023.27
2022-08-10T08:40:24.716Z,1023.22
2022-08-10T08:41:24.727Z,1023.29
2022-08-10T08:42:24.754Z,1023.28
2022-08-10T08:43:28.435Z,1023.29
2022-08-10T08:44:24.768Z,1023.25
2022-08-10T08:45:24.770Z,1023.28
2022-08-10T08:46:24.786Z,1023.25
2022-08-10T08:48:03.870Z,1023.28
2022-08-10T08:48:24.810Z,1023.25
2022-08-10T08:50:08.524Z,1023.23
2022-08-10T08:50:24.821Z,1023.19
2022-08-10T08:52:09.984Z,1023.19
2022-08-10T08:52:24.854Z,1023.19
2022-08-10T08:53:24.911Z,1023.18
2022-08-10T08:54:24.864Z,1023.20
2022-08-10T08:56:05.028Z,1023.20
2022-08-10T08:56:24.902Z,1023.20
2022-08-10T08:57:49.195Z,1023.13
2022-08-10T08:58:24.902Z,1023.16
2022-08-10T08:59:24.902Z,1023.15
2022-08-10T09:00:24.956Z,1023.16
2022-08-10T09:01:38.261Z,1023.12
2022-08-10T09:02:24.948Z,1023.11
2022-08-10T09:03:28.132Z,1023.12
2022-08-10T09:04:24.951Z,1023.09
2022-08-10T09:05:24.966Z,1023.06
2022-08-10T09:06:25.033Z,1023.08
2022-08-10T09:08:01.079Z,1023.08
2022-08-10T09:08:24.986Z,1023.10
2022-08-10T09:09:24.993Z,1023.08
2022-08-10T09:10:25.093Z,1023.12
2022-08-10T09:11:25.015Z,1023.11
2022-08-10T09:12:25.072Z,1023.13
2022-08-10T09:13:25.059Z,1023.19
2022-08-10T09:14:25.817Z,1023.16
2022-08-10T09:15:40.881Z,1023.15
2022-08-10T09:16:25.066Z,1023.08
2022-08-10T09:17:25.047Z,1023.09
2022-08-10T09:18:25.057Z,1023.10
2022-08-10T09:19:34.913Z,1023.14
2022-08-10T09:20:25.125Z,1023.18
2022-08-10T09:21:25.089Z,1023.10
2022-08-10T09:22:25.205Z,1023.15
2022-08-10T09:24:05.138Z,1023.14
2022-08-10T09:24:25.118Z,1023.09
2022-08-10T09:25:25.109Z,1023.06
2022-08-10T09:26:25.136Z,1023.07
2022-08-10T09:27:25.123Z,1023.04
2022-08-10T09:28:26.859Z,1023.04
2022-08-10T09:29:25.173Z,1023.10
2022-08-10T09:30:28.418Z,1023.09
2022-08-10T09:31:26.066Z,1023.08
2022-08-10T09:36:14.963Z,1023.07
2022-08-10T09:36:21.526Z,1023.04
2022-08-10T09:36:25.759Z,1023.05
2022-08-10T09:36:29.396Z,1023.05
2022-08-10T09:36:33.327Z,1023.08
2022-08-10T09:37:42.628Z,1023.08
2022-08-10T09:38:25.227Z,1023.05
2022-08-10T09:40:58.321Z,1023.05
2022-08-10T09:40:58.321Z,1023.07
2022-08-10T09:41:25.305Z,1023.05
2022-08-10T09:42:25.241Z,1023.01
2022-08-10T09:43:26.652Z,1023.01
2022-08-10T09:44:25.259Z,1022.95
2022-08-10T09:45:25.270Z,1022.97
2022-08-10T09:46:27.490Z,1022.98
2022-08-10T09:48:02.371Z,1022.93
2022-08-10T09:48:25.297Z,1022.93
2022-08-10T09:49:52.753Z,1022.93
2022-08-10T09:50:25.297Z,1022.90
2022-08-10T09:52:25.299Z,1022.88
2022-08-10T09:53:25.349Z,1022.89
2022-08-10T09:54:25.327Z,1022.88
2022-08-10T09:56:17.076Z,1022.88
2022-08-10T09:56:28.582Z,1022.84
2022-08-10T09:57:44.663Z,1022.84
2022-08-10T09:58:25.359Z,1022.80
2022-08-10T09:59:45.871Z,1022.85
2022-08-10T10:00:25.359Z,1022.81
2022-08-10T10:01:58.009Z,1022.80
2022-08-10T10:02:25.383Z,1022.82
2022-08-10T10:03:26.146Z,1022.79
2022-08-10T10:04:25.406Z,1022.78
2022-08-10T10:05:25.408Z,1022.78
2022-08-10T10:06:25.416Z,1022.79
2022-08-10T10:07:25.419Z,1022.76
2022-08-10T10:08:25.450Z,1022.71
2022-08-10T10:09:27.026Z,1022.80
2022-08-10T10:10:25.422Z,1022.83
2022-08-10T10:11:25.430Z,1022.76
2022-08-10T10:12:25.469Z,1022.79
2022-08-10T10:14:01.961Z,1022.74
2022-08-10T10:14:25.454Z,1022.71
2022-08-10T10:15:25.959Z,1022.70
2022-08-10T10:16:25.463Z,1022.69
2022-08-10T10:17:25.472Z,1022.69
2022-08-10T10:18:25.475Z,1022.68
2022-08-10T10:19:25.487Z,1022.65
2022-08-10T10:20:25.499Z,1022.68
2022-08-10T10:21:55.087Z,1022.60
2022-08-10T10:22:25.505Z,1022.63
2022-08-10T10:23:25.519Z,1022.67
2022-08-10T10:24:25.523Z,1022.65
2022-08-10T10:25:25.534Z,1022.58
2022-08-10T10:26:25.535Z,1022.60
2022-08-10T10:27:25.540Z,1022.56
2022-08-10T10:28:25.558Z,1022.60
2022-08-10T10:29:56.608Z,1022.54
2022-08-10T10:30:25.554Z,1022.63
2022-08-10T10:31:25.578Z,1022.55
2022-08-10T10:32:25.576Z,1022.55
2022-08-10T10:33:25.592Z,1022.53
2022-08-10T10:34:25.586Z,1022.55
2022-08-10T10:35:25.591Z,1022.53
2022-08-10T10:36:25.606Z,1022.53
2022-08-10T10:38:10.304Z,1022.51
2022-08-10T10:38:25.607Z,1022.48
2022-08-10T10:39:25.653Z,1022.48
2022-08-10T10:40:25.623Z,1022.46
2022-08-10T10:41:25.636Z,1022.44
2022-08-10T10:42:44.217Z,1022.40
2022-08-10T10:43:25.663Z,1022.37
2022-08-10T10:44:25.645Z,1022.37
2022-08-10T10:45:25.656Z,1022.39
2022-08-10T10:46:25.668Z,1022.37
2022-08-10T10:47:25.670Z,1022.35
2022-08-10T10:48:29.126Z,1022.35
2022-08-10T10:49:25.681Z,1022.33
2022-08-10T10:50:25.681Z,1022.33
2022-08-10T10:51:25.690Z,1022.33
2022-08-10T10:52:25.698Z,1022.33
2022-08-10T10:53:25.719Z,1022.35
2022-08-10T10:54:25.731Z,1022.36
2022-08-10T10:55:25.724Z,1022.34
2022-08-10T10:56:25.725Z,1022.36
2022-08-10T10:57:59.386Z,1022.36
2022-08-10T10:58:28.400Z,1022.36
2022-08-10T10:59:56.437Z,1022.33
2022-08-10T11:00:25.755Z,1022.34
2022-08-10T11:01:25.809Z,1022.31
2022-08-10T11:02:25.763Z,1022.34
2022-08-10T11:03:25.869Z,1022.25
2022-08-10T11:04:25.785Z,1022.27
2022-08-10T11:05:25.791Z,1022.27
2022-08-10T11:06:39.477Z,1022.25
2022-08-10T11:07:30.968Z,1022.30
2022-08-10T11:08:29.206Z,1022.30
2022-08-10T11:10:04.967Z,1022.24
2022-08-10T11:10:32.561Z,1022.27
2022-08-10T11:12:00.373Z,1022.25
2022-08-10T11:12:26.255Z,1022.26
2022-08-10T11:14:23.078Z,1022.23
2022-08-10T11:14:29.172Z,1022.23
2022-08-10T11:15:25.844Z,1022.28
2022-08-10T11:16:25.886Z,1022.32
2022-08-10T11:17:25.853Z,1022.28
2022-08-10T11:18:25.861Z,1022.25
2022-08-10T11:19:25.873Z,1022.25
2022-08-10T11:20:25.876Z,1022.25
2022-08-10T11:21:25.872Z,1022.25
2022-08-10T11:22:25.897Z,1022.24
2022-08-10T11:23:25.894Z,1022.27
2022-08-10T11:24:48.193Z,1022.22
2022-08-10T11:25:25.970Z,1022.19
2022-08-10T11:26:25.914Z,1022.23
2022-08-10T11:27:25.932Z,1022.17
2022-08-10T11:28:25.924Z,1022.12
2022-08-10T11:29:25.957Z,1022.11
2022-08-10T11:30:25.926Z,1022.12
2022-08-10T11:31:25.970Z,1022.10
2022-08-10T11:32:25.964Z,1022.07
2022-08-10T11:33:30.910Z,1022.10
2022-08-10T11:34:47.251Z,1022.12
2022-08-10T11:35:25.957Z,1022.10
2022-08-10T11:36:25.969Z,1022.13
2022-08-10T11:37:25.980Z,1022.13
2022-08-10T11:38:28.688Z,1022.08
2022-08-10T11:39:26.070Z,1022.07
2022-08-10T11:40:25.994Z,1022.09
2022-08-10T11:42:11.752Z,1022.09
2022-08-10T11:42:33.431Z,1022.11
2022-08-10T11:43:26.002Z,1022.09
2022-08-10T11:44:26.004Z,1022.03
2022-08-10T11:45:26.032Z,1022.05
2022-08-10T11:46:28.705Z,1022.00
2022-08-10T11:47:26.029Z,1022.00
2022-08-10T11:48:54.360Z,1022.01
2022-08-10T11:49:26.039Z,1021.94
2022-08-10T11:50:26.049Z,1022.00
2022-08-10T11:51:26.054Z,1021.93
2022-08-10T11:52:26.069Z,1021.93
2022-08-10T11:53:26.086Z,1021.93
2022-08-10T11:54:26.073Z,1021.97
2022-08-10T11:55:26.075Z,1021.93
2022-08-10T11:56:26.085Z,1021.91
2022-08-10T11:57:26.091Z,1021.91
2022-08-10T11:58:26.116Z,1021.92
2022-08-10T11:59:26.149Z,1021.87
2022-08-10T12:00:29.638Z,1021.88
2022-08-10T12:01:26.126Z,1021.89
2022-08-10T12:02:26.145Z,1021.92
2022-08-10T12:03:26.174Z,1021.88
2022-08-10T12:04:26.135Z,1021.95
2022-08-10T12:05:54.683Z,1022.01
2022-08-10T12:06:52.243Z,1021.92
2022-08-10T12:10:03.671Z,1021.89
2022-08-10T12:10:04.842Z,1021.92
2022-08-10T12:10:08.634Z,1021.86
2022-08-10T12:10:26.161Z,1021.83
2022-08-10T12:11:26.184Z,1021.83
2022-08-10T12:12:26.184Z,1021.83
2022-08-10T12:13:26.203Z,1021.81
2022-08-10T12:14:26.190Z,1021.80